createdAt,value
2019-03-30T00:01:59.399Z,27.87
2019-03-30T00:04:30.030Z,28.67
2019-03-30T00:06:59.571Z,29.93
2019-03-30T00:12:18.592Z,33.53
2019-03-30T00:14:47.012Z,29.23
2019-03-30T00:17:20.505Z,27.80
2019-03-30T00:19:51.901Z,32.10
2019-03-30T00:22:21.073Z,32.10
2019-03-30T00:24:50.851Z,31.97
2019-03-30T00:27:20.972Z,29.37
2019-03-30T00:29:52.592Z,34.47
2019-03-30T00:32:21.252Z,32.53
2019-03-30T00:34:50.507Z,34.87
2019-03-30T00:37:19.426Z,28.60
2019-03-30T00:39:51.306Z,35.03
2019-03-30T00:42:21.511Z,31.90
2019-03-30T00:44:53.342Z,29.20
2019-03-30T00:47:21.988Z,30.50
2019-03-30T00:49:50.977Z,35.00
2019-03-30T00:52:21.387Z,30.53
2019-03-30T00:54:50.560Z,32.17
2019-03-30T00:57:21.224Z,35.87
2019-03-30T00:59:51.311Z,29.60
2019-03-30T01:02:21.308Z,30.17
2019-03-30T01:04:50.074Z,31.40
2019-03-30T01:07:20.911Z,29.87
2019-03-30T01:10:12.339Z,29.43
2019-03-30T01:12:21.113Z,28.17
2019-03-30T01:14:50.253Z,31.20
2019-03-30T01:17:21.958Z,33.47
2019-03-30T01:20:02.353Z,32.77
2019-03-30T01:22:22.857Z,32.60
2019-03-30T01:24:52.702Z,28.40
2019-03-30T01:27:26.608Z,30.90
2019-03-30T01:29:57.743Z,30.13
2019-03-30T01:32:26.700Z,29.20
2019-03-30T01:34:57.994Z,28.90
2019-03-30T01:37:28.898Z,30.17
2019-03-30T01:39:57.599Z,28.47
2019-03-30T01:42:26.358Z,29.17
2019-03-30T01:44:56.925Z,28.83
2019-03-30T01:47:25.682Z,29.43
2019-03-30T01:49:54.460Z,24.93
2019-03-30T01:52:28.655Z,26.67
2019-03-30T01:54:59.921Z,27.57
2019-03-30T01:57:30.762Z,27.03
2019-03-30T02:00:02.654Z,26.30
2019-03-30T02:02:33.816Z,25.73
2019-03-30T02:05:05.787Z,27.40
2019-03-30T02:07:35.329Z,26.77
2019-03-30T02:10:08.348Z,27.63
2019-03-30T02:12:40.056Z,23.83
2019-03-30T02:15:10.565Z,26.53
2019-03-30T02:17:41.919Z,26.20
2019-03-30T02:20:14.219Z,26.73
2019-03-30T02:22:44.992Z,24.83
2019-03-30T02:25:14.636Z,24.70
2019-03-30T02:27:44.783Z,25.33
2019-03-30T02:30:15.800Z,27.73
2019-03-30T02:32:46.889Z,23.43
2019-03-30T02:35:15.736Z,28.03
2019-03-30T02:37:45.387Z,24.73
2019-03-30T02:40:14.157Z,26.40
2019-03-30T02:42:44.375Z,25.03
2019-03-30T02:45:14.669Z,26.53
2019-03-30T02:47:44.103Z,28.37
2019-03-30T02:50:13.956Z,28.27
2019-03-30T02:52:43.606Z,26.40
2019-03-30T02:55:14.272Z,25.97
2019-03-30T02:57:43.068Z,24.10
2019-03-30T03:00:16.921Z,27.13
2019-03-30T03:02:47.362Z,24.33
2019-03-30T03:05:20.166Z,24.53
2019-03-30T03:07:50.387Z,25.27
2019-03-30T03:10:19.368Z,23.10
2019-03-30T03:12:49.291Z,22.17
2019-03-30T03:15:17.999Z,25.07
2019-03-30T03:17:48.495Z,23.63
2019-03-30T03:20:19.637Z,28.37
2019-03-30T03:22:51.074Z,25.13
2019-03-30T03:25:28.125Z,27.50
2019-03-30T03:27:56.817Z,22.67
2019-03-30T03:30:26.349Z,23.30
2019-03-30T03:32:56.496Z,23.13
2019-03-30T03:35:28.229Z,24.80
2019-03-30T03:37:59.731Z,24.43
2019-03-30T03:40:30.049Z,25.37
2019-03-30T03:43:00.218Z,23.60
2019-03-30T03:45:29.550Z,25.73
2019-03-30T03:47:58.694Z,27.63
2019-03-30T03:50:42.529Z,30.83
2019-03-30T03:53:14.750Z,29.37
2019-03-30T03:55:46.131Z,22.50
2019-03-30T03:58:16.879Z,24.60
2019-03-30T04:00:46.542Z,21.83
2019-03-30T04:03:21.262Z,22.47
2019-03-30T04:05:50.022Z,28.90
2019-03-30T04:08:20.609Z,24.77
2019-03-30T04:10:50.086Z,24.30
2019-03-30T04:13:24.726Z,23.90
2019-03-30T04:15:53.602Z,27.27
2019-03-30T04:18:22.352Z,22.83
2019-03-30T04:20:52.833Z,25.80
2019-03-30T04:23:22.303Z,23.73
2019-03-30T04:25:52.241Z,25.40
2019-03-30T04:28:36.012Z,30.10
2019-03-30T04:31:06.540Z,28.30
2019-03-30T04:33:36.352Z,25.60
2019-03-30T04:36:06.766Z,27.20
2019-03-30T04:38:37.232Z,22.33
2019-03-30T04:41:07.350Z,26.33
2019-03-30T04:43:36.099Z,27.43
2019-03-30T04:46:08.490Z,25.60
2019-03-30T04:48:40.269Z,24.93
2019-03-30T04:51:10.657Z,23.37
2019-03-30T04:53:42.134Z,24.10
2019-03-30T04:56:14.088Z,23.03
2019-03-30T04:58:43.665Z,28.20
2019-03-30T05:01:17.398Z,24.27
2019-03-30T05:03:48.239Z,23.07
2019-03-30T05:06:18.667Z,26.57
2019-03-30T05:08:53.276Z,25.37
2019-03-30T05:11:21.879Z,24.90
2019-03-30T05:13:52.716Z,26.47
2019-03-30T05:16:23.161Z,23.27
2019-03-30T05:18:52.874Z,27.73
2019-03-30T05:21:26.851Z,22.07
2019-03-30T05:23:57.730Z,25.77
2019-03-30T05:26:29.242Z,26.20
2019-03-30T05:28:58.274Z,24.80
2019-03-30T05:31:28.844Z,22.70
2019-03-30T05:33:57.966Z,28.53
2019-03-30T05:36:29.893Z,24.47
2019-03-30T05:39:01.371Z,20.33
2019-03-30T05:41:32.668Z,21.87
2019-03-30T05:44:03.452Z,27.53
2019-03-30T05:46:37.281Z,24.90
2019-03-30T05:49:08.309Z,25.30
2019-03-30T05:51:37.238Z,73.37
2019-03-30T05:54:07.496Z,22.13
2019-03-30T05:56:38.417Z,22.83
2019-03-30T05:59:07.785Z,23.67
2019-03-30T06:01:39.634Z,22.17
2019-03-30T06:04:10.024Z,22.60
2019-03-30T06:06:40.324Z,22.50
2019-03-30T06:09:12.288Z,22.40
2019-03-30T06:11:44.844Z,24.00
2019-03-30T06:14:13.522Z,25.17
2019-03-30T06:16:45.566Z,24.30
2019-03-30T06:19:14.573Z,26.20
2019-03-30T06:21:43.253Z,20.73
2019-03-30T06:24:11.912Z,20.73
2019-03-30T06:26:40.711Z,24.77
2019-03-30T06:29:09.283Z,25.57
2019-03-30T06:31:39.423Z,21.87
2019-03-30T06:34:08.101Z,23.30
2019-03-30T06:36:39.938Z,19.90
2019-03-30T06:39:09.467Z,23.73
2019-03-30T06:41:38.228Z,24.13
2019-03-30T06:44:06.955Z,22.93
2019-03-30T06:46:39.348Z,24.60
2019-03-30T06:49:10.195Z,25.30
2019-03-30T06:51:44.900Z,24.63
2019-03-30T06:54:15.211Z,28.53
2019-03-30T06:56:45.421Z,28.17
2019-03-30T06:59:16.795Z,21.03
2019-03-30T07:01:48.203Z,23.20
2019-03-30T07:04:17.380Z,29.17
2019-03-30T07:06:51.724Z,33.80
2019-03-30T07:09:23.612Z,48.43
2019-03-30T07:11:56.916Z,42.83
2019-03-30T07:14:36.622Z,22.23
2019-03-30T07:17:07.046Z,26.50
2019-03-30T07:19:39.480Z,23.70
2019-03-30T07:22:09.365Z,20.63
2019-03-30T07:24:42.448Z,23.30
2019-03-30T07:27:15.311Z,26.03
2019-03-30T07:29:45.933Z,21.40
2019-03-30T07:32:15.434Z,20.07
2019-03-30T07:34:45.089Z,21.57
2019-03-30T07:37:14.056Z,20.07
2019-03-30T07:39:45.491Z,21.87
2019-03-30T07:42:16.970Z,23.27
2019-03-30T07:44:45.793Z,29.67
2019-03-30T07:47:15.317Z,147.17
2019-03-30T07:49:45.504Z,19.60
2019-03-30T07:52:14.286Z,22.87
2019-03-30T07:54:44.695Z,23.00
2019-03-30T07:57:17.414Z,22.97
2019-03-30T07:59:50.773Z,23.73
2019-03-30T08:02:20.929Z,22.53
2019-03-30T08:04:51.889Z,21.77
2019-03-30T08:07:20.937Z,20.00
2019-03-30T08:09:55.964Z,24.10
2019-03-30T08:12:24.773Z,24.97
2019-03-30T08:14:56.842Z,24.70
2019-03-30T08:17:26.941Z,24.50
2019-03-30T08:19:55.625Z,24.47
2019-03-30T08:22:26.353Z,22.77
2019-03-30T08:24:57.099Z,26.00
2019-03-30T08:27:33.450Z,25.93
2019-03-30T08:30:01.204Z,22.30
2019-03-30T08:32:31.344Z,31.37
2019-03-30T08:35:01.750Z,32.17
2019-03-30T08:37:30.813Z,32.37
2019-03-30T08:40:00.401Z,29.90
2019-03-30T08:42:34.578Z,58.77
2019-03-30T08:45:07.591Z,23.33
2019-03-30T08:47:38.190Z,33.30
2019-03-30T08:50:16.017Z,30.90
2019-03-30T08:52:41.844Z,38.77
2019-03-30T08:55:16.674Z,26.17
2019-03-30T08:57:45.707Z,30.73
2019-03-30T09:00:20.608Z,41.90
2019-03-30T09:02:49.403Z,35.13
2019-03-30T09:05:18.099Z,26.90
2019-03-30T09:07:47.450Z,53.37
2019-03-30T09:10:16.239Z,40.13
2019-03-30T09:12:48.328Z,33.23
2019-03-30T09:15:19.733Z,33.77
2019-03-30T09:17:49.479Z,37.27
2019-03-30T09:20:20.273Z,30.77
2019-03-30T09:22:49.726Z,31.47
2019-03-30T09:25:20.672Z,32.77
2019-03-30T09:27:50.482Z,29.93
2019-03-30T09:30:25.431Z,46.40
2019-03-30T09:32:54.924Z,121.33
2019-03-30T09:35:23.658Z,33.23
2019-03-30T09:37:52.364Z,38.67
2019-03-30T09:40:23.954Z,33.97
2019-03-30T09:42:55.656Z,32.83
2019-03-30T09:45:24.479Z,36.40
2019-03-30T09:47:54.205Z,25.57
2019-03-30T09:50:33.775Z,30.60
2019-03-30T09:53:02.832Z,26.83
2019-03-30T09:55:33.366Z,26.40
2019-03-30T09:58:03.903Z,29.77
2019-03-30T10:00:33.975Z,26.07
2019-03-30T10:03:06.301Z,26.00
2019-03-30T10:05:36.587Z,28.90
2019-03-30T10:08:08.649Z,43.20
2019-03-30T10:10:37.410Z,30.03
2019-03-30T10:13:10.373Z,23.67
2019-03-30T10:15:42.992Z,26.27
2019-03-30T10:18:15.933Z,25.37
2019-03-30T10:20:45.793Z,31.57
2019-03-30T10:23:15.921Z,27.70
2019-03-30T10:25:44.704Z,53.63
2019-03-30T10:28:17.264Z,26.67
2019-03-30T10:30:47.838Z,44.80
2019-03-30T10:33:17.741Z,33.93
2019-03-30T10:35:50.339Z,51.60
2019-03-30T10:38:23.701Z,22.93
2019-03-30T10:40:54.578Z,23.20
2019-03-30T10:43:23.941Z,49.10
2019-03-30T10:45:53.935Z,29.43
2019-03-30T10:48:22.879Z,25.33
2019-03-30T10:50:51.768Z,28.17
2019-03-30T10:53:20.565Z,41.50
2019-03-30T10:55:49.259Z,23.03
2019-03-30T10:58:18.510Z,24.77
2019-03-30T11:00:48.379Z,24.73
2019-03-30T11:03:18.433Z,53.10
2019-03-30T11:05:48.489Z,63.60
2019-03-30T11:08:19.679Z,48.47
2019-03-30T11:10:51.648Z,25.43
2019-03-30T11:13:24.131Z,36.63
2019-03-30T11:15:53.861Z,58.67
2019-03-30T11:18:22.577Z,37.30
2019-03-30T11:20:52.817Z,22.67
2019-03-30T11:23:21.547Z,26.70
2019-03-30T11:25:51.036Z,22.33
2019-03-30T11:28:23.347Z,34.97
2019-03-30T11:30:52.317Z,97.37
2019-03-30T11:33:21.067Z,41.30
2019-03-30T11:35:54.573Z,23.10
2019-03-30T11:38:24.574Z,49.23
2019-03-30T11:40:54.172Z,27.70
2019-03-30T11:43:23.567Z,32.23
2019-03-30T11:46:06.932Z,25.77
2019-03-30T11:48:37.234Z,24.23
2019-03-30T11:51:06.340Z,22.63
2019-03-30T11:53:37.711Z,24.30
2019-03-30T11:56:13.713Z,27.20
2019-03-30T11:58:49.044Z,34.90
2019-03-30T12:01:27.995Z,24.70
2019-03-30T12:03:57.175Z,24.17
2019-03-30T12:06:30.523Z,28.37
2019-03-30T12:09:02.682Z,26.17
2019-03-30T12:11:31.442Z,24.30
2019-03-30T12:14:04.990Z,27.53
2019-03-30T12:16:34.792Z,25.00
2019-03-30T12:19:08.369Z,36.47
2019-03-30T12:21:39.675Z,25.97
2019-03-30T12:24:10.326Z,25.83
2019-03-30T12:26:42.957Z,25.00
2019-03-30T12:29:15.238Z,25.53
2019-03-30T12:31:47.103Z,25.47
2019-03-30T12:34:22.364Z,23.03
2019-03-30T12:36:51.647Z,24.13
2019-03-30T12:39:22.956Z,30.43
2019-03-30T12:41:54.056Z,24.50
2019-03-30T12:44:28.021Z,23.57
2019-03-30T12:46:58.701Z,26.57
2019-03-30T12:49:29.631Z,25.60
2019-03-30T12:51:58.672Z,24.73
2019-03-30T12:54:27.558Z,24.63
2019-03-30T12:56:57.711Z,24.80
2019-03-30T12:59:26.649Z,23.80
2019-03-30T13:01:55.510Z,26.13
2019-03-30T13:04:24.402Z,28.73
2019-03-30T13:06:55.753Z,26.73
2019-03-30T13:09:25.882Z,27.73
2019-03-30T13:11:56.159Z,25.63
2019-03-30T13:14:25.044Z,25.40
2019-03-30T13:16:54.143Z,23.97
2019-03-30T13:19:28.758Z,23.83
2019-03-30T13:21:57.885Z,23.37
2019-03-30T13:24:28.193Z,22.27
2019-03-30T13:26:57.185Z,24.40
2019-03-30T13:29:26.068Z,25.33
2019-03-30T13:31:58.869Z,25.07
2019-03-30T13:34:29.247Z,23.70
2019-03-30T13:36:58.089Z,26.90
2019-03-30T13:39:29.521Z,24.67
2019-03-30T13:41:58.430Z,22.27
2019-03-30T13:44:27.311Z,24.07
2019-03-30T13:46:57.510Z,24.17
2019-03-30T13:49:29.623Z,25.90
2019-03-30T13:51:59.805Z,24.93
2019-03-30T13:54:29.224Z,23.77
2019-03-30T13:56:57.913Z,21.80
2019-03-30T13:59:27.912Z,24.10
2019-03-30T14:01:57.250Z,26.93
2019-03-30T14:04:30.942Z,26.77
2019-03-30T14:07:01.458Z,24.33
2019-03-30T14:09:30.517Z,25.47
2019-03-30T14:12:02.053Z,25.37
2019-03-30T14:14:30.842Z,25.67
2019-03-30T14:16:59.865Z,28.63
2019-03-30T14:19:29.061Z,27.87
2019-03-30T14:21:57.767Z,24.20
2019-03-30T14:24:28.988Z,22.57
2019-03-30T14:26:58.481Z,27.30
2019-03-30T14:29:29.023Z,27.23
2019-03-30T14:31:57.853Z,26.87
2019-03-30T14:34:29.482Z,24.73
2019-03-30T14:36:58.180Z,21.87
2019-03-30T14:39:27.953Z,25.13
2019-03-30T14:42:00.572Z,23.77
2019-03-30T14:44:29.453Z,22.63
2019-03-30T14:46:58.178Z,25.50
2019-03-30T14:49:26.939Z,25.77
2019-03-30T14:51:56.379Z,24.93
2019-03-30T14:54:26.440Z,25.83
2019-03-30T14:56:55.860Z,28.57
2019-03-30T14:59:25.256Z,25.17
2019-03-30T15:01:53.987Z,25.60
2019-03-30T15:04:24.510Z,27.90
2019-03-30T15:06:54.705Z,31.43
2019-03-30T15:09:23.497Z,30.73
2019-03-30T15:11:53.851Z,30.80
2019-03-30T15:14:23.823Z,30.83
2019-03-30T15:16:54.197Z,32.57
2019-03-30T15:19:27.116Z,33.83
2019-03-30T15:21:55.976Z,32.67
2019-03-30T15:24:25.619Z,33.57
2019-03-30T15:27:00.052Z,36.83
2019-03-30T15:29:32.022Z,36.73
2019-03-30T15:32:00.815Z,35.57
2019-03-30T15:34:29.519Z,33.57
2019-03-30T15:37:01.584Z,38.03
2019-03-30T15:39:32.961Z,37.93
2019-03-30T15:42:03.215Z,37.43
2019-03-30T15:44:40.351Z,36.57
2019-03-30T15:47:09.275Z,41.23
2019-03-30T15:49:39.371Z,37.53
2019-03-30T15:52:14.091Z,39.20
2019-03-30T15:54:40.551Z,37.27
2019-03-30T15:57:14.325Z,37.93
2019-03-30T15:59:45.309Z,44.33
2019-03-30T16:02:16.397Z,104.87
2019-03-30T16:04:45.100Z,37.80
2019-03-30T16:07:15.507Z,40.17
2019-03-30T16:09:44.358Z,36.90
2019-03-30T16:12:13.143Z,42.27
2019-03-30T16:14:45.763Z,38.17
2019-03-30T16:17:15.018Z,42.23
2019-03-30T16:19:44.187Z,41.50
2019-03-30T16:22:12.911Z,39.80
2019-03-30T16:24:46.185Z,39.03
2019-03-30T16:27:28.091Z,41.63
2019-03-30T16:29:47.327Z,42.47
2019-03-30T16:32:16.538Z,49.07
2019-03-30T16:34:47.375Z,46.17
2019-03-30T16:37:16.809Z,42.83
2019-03-30T16:39:45.438Z,40.33
2019-03-30T16:42:16.048Z,42.67
2019-03-30T16:44:45.267Z,49.97
2019-03-30T16:47:17.765Z,50.93
2019-03-30T16:49:53.624Z,44.50
2019-03-30T16:52:18.289Z,49.00
2019-03-30T16:54:50.400Z,45.90
2019-03-30T16:57:22.698Z,48.00
2019-03-30T16:59:51.367Z,42.17
2019-03-30T17:02:23.108Z,46.70
2019-03-30T17:04:54.198Z,51.87
2019-03-30T17:07:22.837Z,49.20
2019-03-30T17:09:53.316Z,49.10
2019-03-30T17:12:23.219Z,45.07
2019-03-30T17:14:54.052Z,49.97
2019-03-30T17:17:22.803Z,51.33
2019-03-30T17:19:53.067Z,53.77
2019-03-30T17:22:22.714Z,47.50
2019-03-30T17:24:51.381Z,47.00
2019-03-30T17:27:23.892Z,50.63
2019-03-30T17:29:55.362Z,47.23
2019-03-30T17:32:24.769Z,51.87
2019-03-30T17:34:54.171Z,52.33
2019-03-30T17:37:23.882Z,47.20
2019-03-30T17:39:55.123Z,62.30
2019-03-30T17:42:26.865Z,55.87
2019-03-30T17:44:57.641Z,53.97
2019-03-30T17:47:26.933Z,52.50
2019-03-30T17:49:59.449Z,51.97
2019-03-30T17:52:29.413Z,52.80
2019-03-30T17:55:00.733Z,64.53
2019-03-30T17:57:31.060Z,61.23
2019-03-30T18:00:00.964Z,53.57
2019-03-30T18:02:36.834Z,54.17
2019-03-30T18:05:06.436Z,60.83
2019-03-30T18:07:36.113Z,59.03
2019-03-30T18:10:07.419Z,54.20
2019-03-30T18:12:39.061Z,58.50
2019-03-30T18:15:10.340Z,57.87
2019-03-30T18:17:39.103Z,59.90
2019-03-30T18:20:13.364Z,61.30
2019-03-30T18:22:40.652Z,58.13
2019-03-30T18:25:10.932Z,57.60
2019-03-30T18:27:45.927Z,60.50
2019-03-30T18:30:19.402Z,59.60
2019-03-30T18:32:48.292Z,55.27
2019-03-30T18:35:24.173Z,59.40
2019-03-30T18:37:57.437Z,58.00
2019-03-30T18:40:33.400Z,70.53
2019-03-30T18:43:05.982Z,62.67
2019-03-30T18:45:36.452Z,63.80
2019-03-30T18:48:13.061Z,67.37
2019-03-30T18:50:47.647Z,63.10
2019-03-30T18:53:17.549Z,61.70
2019-03-30T18:55:46.354Z,65.70
2019-03-30T18:58:17.512Z,62.97
2019-03-30T19:00:48.042Z,64.73
2019-03-30T19:03:20.994Z,69.93
2019-03-30T19:05:52.039Z,63.77
2019-03-30T19:08:20.643Z,61.27
2019-03-30T19:10:52.152Z,63.80
2019-03-30T19:13:24.015Z,65.53
2019-03-30T19:15:55.725Z,65.47
2019-03-30T19:18:38.788Z,62.80
2019-03-30T19:21:11.458Z,62.77
2019-03-30T19:23:47.638Z,67.07
2019-03-30T19:26:19.457Z,66.20
2019-03-30T19:28:56.585Z,71.73
2019-03-30T19:31:24.929Z,72.93
2019-03-30T19:34:04.298Z,76.77
2019-03-30T19:36:32.910Z,83.67
2019-03-30T19:39:05.848Z,84.50
2019-03-30T19:41:35.285Z,83.17
2019-03-30T19:44:06.383Z,95.97
2019-03-30T19:46:37.157Z,101.60
2019-03-30T19:49:11.068Z,91.43
2019-03-30T19:51:43.971Z,94.37
2019-03-30T19:54:13.058Z,95.93
2019-03-30T19:56:44.292Z,95.97
2019-03-30T19:59:18.227Z,92.77
2019-03-30T20:01:50.506Z,98.13
2019-03-30T20:04:19.649Z,100.17
2019-03-30T20:06:51.683Z,95.87
2019-03-30T20:09:27.990Z,102.97
2019-03-30T20:11:58.136Z,100.17
2019-03-30T20:14:40.119Z,100.60
2019-03-30T20:17:10.872Z,104.53
2019-03-30T20:19:43.907Z,109.20
2019-03-30T20:22:14.229Z,106.03
2019-03-30T20:24:46.910Z,122.90
2019-03-30T20:27:19.656Z,114.70
2019-03-30T20:29:49.249Z,111.77
2019-03-30T20:32:20.519Z,104.17
2019-03-30T20:34:56.784Z,116.20
2019-03-30T20:37:27.892Z,118.50
2019-03-30T20:40:04.403Z,116.47
2019-03-30T20:42:34.570Z,117.10
2019-03-30T20:45:05.143Z,129.73
2019-03-30T20:47:33.947Z,119.27
2019-03-30T20:50:07.980Z,125.70
2019-03-30T20:52:38.768Z,118.90
2019-03-30T20:55:07.977Z,118.87
2019-03-30T20:57:42.819Z,119.17
2019-03-30T21:00:13.395Z,126.13
2019-03-30T21:02:48.229Z,139.63
2019-03-30T21:05:17.189Z,162.53
2019-03-30T21:07:47.480Z,157.30
2019-03-30T21:10:17.848Z,167.17
2019-03-30T21:12:48.740Z,164.87
2019-03-30T21:15:22.775Z,156.30
2019-03-30T21:17:58.208Z,149.63
2019-03-30T21:20:28.543Z,152.77
2019-03-30T21:22:58.149Z,180.33
2019-03-30T21:25:26.999Z,151.20
2019-03-30T21:27:57.080Z,165.73
2019-03-30T21:30:26.493Z,183.03
2019-03-30T21:33:06.816Z,159.07
2019-03-30T21:35:35.770Z,165.30
2019-03-30T21:38:05.760Z,165.90
2019-03-30T21:40:37.960Z,169.63
2019-03-30T21:43:09.074Z,170.50
2019-03-30T21:45:40.028Z,172.10
2019-03-30T21:48:08.768Z,177.57
2019-03-30T21:50:38.797Z,171.63
2019-03-30T21:53:08.976Z,179.83
2019-03-30T21:55:42.948Z,172.57
2019-03-30T21:58:14.171Z,171.60
2019-03-30T22:00:46.092Z,166.40
2019-03-30T22:03:19.306Z,180.87
2019-03-30T22:05:50.472Z,187.07
2019-03-30T22:08:19.177Z,188.17
2019-03-30T22:10:50.773Z,184.33
2019-03-30T22:13:21.679Z,187.10
2019-03-30T22:15:52.463Z,194.67
2019-03-30T22:18:23.329Z,195.93
2019-03-30T22:20:54.494Z,182.43
2019-03-30T22:23:27.987Z,182.00
2019-03-30T22:25:59.037Z,177.90
2019-03-30T22:28:30.393Z,177.33
2019-03-30T22:31:01.844Z,188.80
2019-03-30T22:33:30.937Z,210.03
2019-03-30T22:36:00.135Z,197.23
2019-03-30T22:38:30.831Z,212.40
2019-03-30T22:41:01.352Z,201.17
2019-03-30T22:43:33.691Z,201.57
2019-03-30T22:46:02.410Z,209.17
2019-03-30T22:48:32.835Z,192.37
2019-03-30T22:51:01.556Z,203.23
2019-03-30T22:53:30.170Z,187.70
2019-03-30T22:55:58.890Z,195.93
2019-03-30T22:58:28.398Z,198.83
2019-03-30T23:01:01.908Z,204.97
2019-03-30T23:03:30.783Z,186.43
2019-03-30T23:06:01.323Z,179.50
2019-03-30T23:08:32.383Z,164.87
2019-03-30T23:11:01.857Z,180.53
2019-03-30T23:13:32.726Z,165.73
2019-03-30T23:16:01.920Z,182.67
2019-03-30T23:18:34.867Z,193.90
2019-03-30T23:21:04.331Z,206.60
2019-03-30T23:23:33.575Z,194.93
2019-03-30T23:26:05.945Z,214.17
2019-03-30T23:28:36.510Z,223.20
2019-03-30T23:31:05.340Z,226.83
2019-03-30T23:33:34.102Z,239.63
2019-03-30T23:36:02.796Z,215.63
2019-03-30T23:38:32.639Z,253.57
2019-03-30T23:41:01.548Z,249.10
2019-03-30T23:43:30.371Z,247.83
2019-03-30T23:46:01.944Z,240.37
2019-03-30T23:48:32.443Z,224.23
2019-03-30T23:51:01.219Z,246.07
2019-03-30T23:53:30.142Z,242.13
2019-03-30T23:55:59.113Z,226.40
2019-03-30T23:58:28.266Z,245.00
